createdAt,value
2023-10-04T00:02:13.354Z,60.52
2023-10-04T00:04:40.424Z,60.75
2023-10-04T00:07:07.066Z,60.69
2023-10-04T00:09:33.534Z,60.44
2023-10-04T00:11:59.968Z,60.64
2023-10-04T00:14:26.403Z,61.36
2023-10-04T00:16:52.861Z,61.04
2023-10-04T00:19:19.279Z,60.80
2023-10-04T00:21:45.693Z,61.09
2023-10-04T00:24:13.020Z,60.93
2023-10-04T00:26:39.503Z,60.75
2023-10-04T00:29:06.136Z,61.20
2023-10-04T00:31:33.537Z,61.17
2023-10-04T00:34:00.816Z,60.91
2023-10-04T00:36:27.308Z,61.45
2023-10-04T00:38:53.751Z,61.12
2023-10-04T00:41:21.037Z,61.08
2023-10-04T00:43:47.488Z,61.03
2023-10-04T00:46:14.783Z,61.32
2023-10-04T00:48:42.131Z,61.42
2023-10-04T00:51:09.476Z,61.22
2023-10-04T00:53:35.914Z,61.26
2023-10-04T00:56:02.336Z,61.37
2023-10-04T00:58:28.808Z,61.60
2023-10-04T01:00:55.240Z,61.21
2023-10-04T01:03:21.966Z,60.86
2023-10-04T01:05:48.807Z,61.17
2023-10-04T01:08:16.242Z,61.53
2023-10-04T01:10:42.667Z,61.48
2023-10-04T01:13:09.069Z,61.35
2023-10-04T01:15:35.501Z,61.13
2023-10-04T01:18:02.044Z,60.82
2023-10-04T01:20:28.574Z,60.73
2023-10-04T01:22:55.002Z,60.21
2023-10-04T01:25:21.432Z,60.63
2023-10-04T01:27:47.869Z,60.49
2023-10-04T01:30:14.317Z,59.93
2023-10-04T01:32:40.747Z,59.93
2023-10-04T01:35:07.200Z,60.11
2023-10-04T01:37:33.589Z,59.94
2023-10-04T01:39:59.996Z,60.24
2023-10-04T01:42:26.442Z,59.67
2023-10-04T01:44:52.846Z,60.15
2023-10-04T01:47:19.235Z,60.11
2023-10-04T01:49:45.664Z,60.02
2023-10-04T01:52:12.075Z,59.79
2023-10-04T01:54:38.478Z,59.62
2023-10-04T01:57:04.971Z,59.89
2023-10-04T01:59:31.355Z,59.83
2023-10-04T02:04:24.082Z,59.59
2023-10-04T02:06:50.458Z,59.19
2023-10-04T02:09:16.919Z,59.25
2023-10-04T02:11:43.338Z,59.04
2023-10-04T02:14:09.737Z,59.05
2023-10-04T02:16:36.161Z,58.99
2023-10-04T02:19:02.640Z,59.18
2023-10-04T02:21:29.359Z,59.22
2023-10-04T02:23:55.776Z,59.35
2023-10-04T02:26:22.161Z,59.19
2023-10-04T02:28:48.529Z,59.21
2023-10-04T02:31:14.973Z,59.29
2023-10-04T02:33:41.435Z,59.16
2023-10-04T02:36:07.900Z,59.10
2023-10-04T02:38:34.311Z,59.10
2023-10-04T02:41:00.695Z,58.89
2023-10-04T02:43:27.184Z,58.79
2023-10-04T02:45:53.593Z,59.33
2023-10-04T02:48:20.008Z,58.99
2023-10-04T02:50:46.428Z,58.98
2023-10-04T02:55:39.149Z,59.25
2023-10-04T02:58:05.558Z,59.38
2023-10-04T03:00:32.084Z,59.10
2023-10-04T03:02:58.481Z,59.38
2023-10-04T03:05:27.719Z,58.85
2023-10-04T03:07:54.103Z,59.15
2023-10-04T03:10:20.518Z,58.90
2023-10-04T03:12:46.950Z,58.93
2023-10-04T03:15:13.333Z,59.11
2023-10-04T03:17:39.736Z,58.58
2023-10-04T03:20:06.152Z,59.07
2023-10-04T03:22:32.516Z,59.06
2023-10-04T03:24:58.874Z,58.79
2023-10-04T03:27:25.231Z,58.63
2023-10-04T03:29:51.665Z,59.09
2023-10-04T03:32:18.054Z,59.01
2023-10-04T03:34:44.441Z,58.83
2023-10-04T03:37:10.797Z,58.90
2023-10-04T03:39:37.212Z,58.75
2023-10-04T03:42:03.704Z,58.46
2023-10-04T03:44:30.115Z,58.22
2023-10-04T03:46:56.485Z,58.69
2023-10-04T03:49:22.860Z,58.45
2023-10-04T03:51:52.068Z,57.97
2023-10-04T03:54:18.606Z,58.03
2023-10-04T03:56:45.060Z,58.46
2023-10-04T03:59:11.454Z,58.39
2023-10-04T04:01:37.817Z,58.55
2023-10-04T04:04:04.515Z,58.35
2023-10-04T04:06:31.091Z,58.11
2023-10-04T04:08:57.492Z,58.33
2023-10-04T04:11:23.859Z,58.05
2023-10-04T04:13:50.227Z,57.69
2023-10-04T04:16:16.603Z,57.78
2023-10-04T04:18:43.062Z,57.96
2023-10-04T04:21:09.562Z,57.97
2023-10-04T04:23:36.051Z,57.56
2023-10-04T04:26:02.445Z,57.65
2023-10-04T04:28:28.898Z,57.80
2023-10-04T04:30:55.362Z,57.87
2023-10-04T04:33:21.805Z,57.51
2023-10-04T04:35:48.242Z,57.29
2023-10-04T04:38:14.661Z,57.57
2023-10-04T04:40:41.030Z,57.53
2023-10-04T04:43:07.383Z,57.54
2023-10-04T04:45:36.609Z,57.65
2023-10-04T04:48:05.941Z,57.58
2023-10-04T04:50:35.190Z,57.40
2023-10-04T04:53:01.552Z,57.98
2023-10-04T04:55:27.969Z,57.72
2023-10-04T04:57:54.338Z,57.54
2023-10-04T05:00:20.744Z,57.54
2023-10-04T05:02:49.990Z,57.36
2023-10-04T05:05:16.433Z,57.56
2023-10-04T05:07:42.820Z,57.45
2023-10-04T05:10:09.517Z,57.07
2023-10-04T05:12:35.961Z,57.56
2023-10-04T05:15:02.345Z,57.30
2023-10-04T05:17:28.795Z,56.75
2023-10-04T05:19:55.220Z,56.89
2023-10-04T05:22:21.621Z,56.29
2023-10-04T05:24:48.066Z,55.73
2023-10-04T05:27:14.521Z,56.28
2023-10-04T05:29:41.216Z,56.40
2023-10-04T05:32:07.948Z,56.48
2023-10-04T05:34:34.622Z,56.53
2023-10-04T05:37:01.290Z,56.22
2023-10-04T05:39:27.730Z,55.74
2023-10-04T05:41:54.174Z,56.15
2023-10-04T05:44:20.583Z,55.60
2023-10-04T05:46:47.082Z,55.69
2023-10-04T05:49:13.529Z,56.12
2023-10-04T05:51:40.006Z,56.07
2023-10-04T05:54:07.988Z,55.73
2023-10-04T05:56:36.189Z,55.85
2023-10-04T05:59:02.749Z,55.59
2023-10-04T06:01:29.337Z,55.77
2023-10-04T06:03:55.887Z,55.61
2023-10-04T06:06:22.387Z,55.20
2023-10-04T06:08:48.852Z,55.38
2023-10-04T06:11:16.156Z,55.27
2023-10-04T06:13:42.568Z,55.44
2023-10-04T06:16:09.003Z,55.33
2023-10-04T06:18:35.429Z,55.39
2023-10-04T06:21:02.156Z,55.40
2023-10-04T06:23:28.668Z,55.16
2023-10-04T06:25:55.040Z,55.19
2023-10-04T06:28:22.009Z,55.31
2023-10-04T06:30:48.600Z,55.37
2023-10-04T06:33:15.123Z,55.20
2023-10-04T06:35:41.598Z,55.48
2023-10-04T06:38:08.157Z,55.53
2023-10-04T06:40:34.541Z,55.21
2023-10-04T06:43:00.937Z,55.22
2023-10-04T06:45:27.359Z,55.23
2023-10-04T06:47:54.982Z,54.98
2023-10-04T06:50:21.401Z,55.24
2023-10-04T06:52:47.846Z,55.07
2023-10-04T06:55:14.276Z,55.69
2023-10-04T06:57:40.772Z,55.73
2023-10-04T07:00:07.479Z,55.50
2023-10-04T07:02:34.017Z,55.29
2023-10-04T07:05:00.418Z,55.22
2023-10-04T07:07:26.820Z,54.94
2023-10-04T07:09:53.299Z,55.01
2023-10-04T07:12:19.775Z,54.97
2023-10-04T07:14:46.574Z,55.30
2023-10-04T07:17:12.998Z,54.95
2023-10-04T07:19:39.363Z,55.05
2023-10-04T07:22:05.750Z,54.54
2023-10-04T07:24:32.201Z,55.11
2023-10-04T07:26:58.632Z,54.89
2023-10-04T07:29:25.033Z,55.12
2023-10-04T07:31:51.483Z,54.53
2023-10-04T07:34:17.961Z,55.00
2023-10-04T07:36:47.209Z,54.91
2023-10-04T07:39:13.638Z,54.64
2023-10-04T07:41:40.045Z,54.87
2023-10-04T07:44:06.604Z,55.14
2023-10-04T07:46:36.082Z,54.77
2023-10-04T07:49:02.516Z,54.97
2023-10-04T07:51:29.244Z,55.08
2023-10-04T07:53:55.725Z,54.84
2023-10-04T07:56:22.160Z,54.63
2023-10-04T07:58:48.546Z,54.13
2023-10-04T08:01:18.018Z,54.45
2023-10-04T08:03:45.120Z,54.67
2023-10-04T08:06:11.736Z,53.83
2023-10-04T08:08:38.148Z,53.87
2023-10-04T08:11:04.621Z,54.14
2023-10-04T08:13:31.001Z,54.44
2023-10-04T08:16:00.255Z,54.43
2023-10-04T08:18:26.799Z,53.38
2023-10-04T08:20:53.279Z,54.04
2023-10-04T08:23:19.707Z,54.15
2023-10-04T08:25:46.109Z,53.37
2023-10-04T08:28:12.534Z,53.95
2023-10-04T08:30:38.991Z,53.73
2023-10-04T08:33:05.522Z,54.35
2023-10-04T08:35:31.963Z,54.19
2023-10-04T08:37:58.352Z,54.32
2023-10-04T08:40:24.786Z,54.06
2023-10-04T08:42:51.204Z,53.92
2023-10-04T08:45:17.686Z,53.88
2023-10-04T08:47:44.180Z,54.13
2023-10-04T08:50:10.630Z,53.95
2023-10-04T08:52:37.050Z,53.73
2023-10-04T08:55:03.489Z,54.17
2023-10-04T08:57:29.915Z,54.00
2023-10-04T08:59:56.352Z,54.09
2023-10-04T09:02:22.868Z,53.90
2023-10-04T09:04:49.515Z,53.96
2023-10-04T09:07:16.046Z,53.96
2023-10-04T09:09:44.327Z,54.38
2023-10-04T09:12:11.114Z,54.11
2023-10-04T09:14:37.549Z,54.19
2023-10-04T09:17:04.004Z,54.04
2023-10-04T09:19:30.500Z,53.80
2023-10-04T09:21:56.976Z,53.88
2023-10-04T09:24:23.563Z,54.18
2023-10-04T09:26:49.989Z,54.56
2023-10-04T09:29:17.288Z,54.78
2023-10-04T09:31:43.749Z,54.24
2023-10-04T09:34:10.207Z,54.07
2023-10-04T09:36:36.655Z,54.36
2023-10-04T09:39:03.109Z,54.76
2023-10-04T09:41:29.518Z,54.82
2023-10-04T09:43:55.960Z,54.42
2023-10-04T09:46:22.378Z,54.29
2023-10-04T09:48:48.837Z,54.08
2023-10-04T09:51:16.096Z,54.07
2023-10-04T09:53:42.910Z,53.95
2023-10-04T09:56:09.471Z,54.56
2023-10-04T09:58:36.181Z,54.49
2023-10-04T10:01:02.777Z,53.80
2023-10-04T10:03:29.352Z,54.04
2023-10-04T10:05:55.827Z,54.11
2023-10-04T10:08:22.269Z,53.56
2023-10-04T10:10:48.685Z,53.55
2023-10-04T10:13:15.118Z,53.69
2023-10-04T10:15:42.356Z,53.69
2023-10-04T10:18:09.001Z,53.49
2023-10-04T10:20:35.524Z,53.79
2023-10-04T10:23:01.938Z,54.05
2023-10-04T10:25:28.336Z,53.62
2023-10-04T10:27:54.801Z,53.82
2023-10-04T10:30:21.349Z,53.54
2023-10-04T10:32:47.820Z,53.33
2023-10-04T10:35:14.287Z,53.43
2023-10-04T10:37:41.033Z,53.20
2023-10-04T10:40:07.480Z,53.68
2023-10-04T10:42:33.932Z,53.67
2023-10-04T10:45:00.375Z,53.60
2023-10-04T10:47:26.926Z,53.17
2023-10-04T10:49:53.596Z,53.85
2023-10-04T10:52:20.357Z,53.47
2023-10-04T10:54:46.830Z,54.02
2023-10-04T10:57:13.337Z,53.57
2023-10-04T10:59:40.605Z,53.75
2023-10-04T11:02:07.016Z,53.84
2023-10-04T11:04:33.524Z,53.72
2023-10-04T11:06:59.992Z,53.88
2023-10-04T11:09:40.454Z,54.02
2023-10-04T11:12:10.970Z,53.85
2023-10-04T11:14:37.387Z,54.16
2023-10-04T11:17:03.898Z,53.57
2023-10-04T11:19:30.343Z,53.86
2023-10-04T11:21:56.817Z,54.18
2023-10-04T11:24:23.292Z,54.06
2023-10-04T11:26:49.743Z,54.18
2023-10-04T11:29:16.261Z,54.57
2023-10-04T11:31:46.393Z,54.26
2023-10-04T11:34:13.339Z,53.58
2023-10-04T11:36:39.782Z,54.13
2023-10-04T11:39:06.262Z,53.91
2023-10-04T11:41:32.690Z,53.95
2023-10-04T11:43:59.197Z,53.43
2023-10-04T11:46:25.703Z,53.54
2023-10-04T11:48:52.220Z,53.20
2023-10-04T11:51:18.665Z,53.68
2023-10-04T11:53:45.074Z,53.57
2023-10-04T11:56:12.356Z,53.27
2023-10-04T11:58:38.799Z,54.02
2023-10-04T12:01:05.255Z,53.11
2023-10-04T12:03:31.709Z,53.12
2023-10-04T12:05:58.253Z,53.59
2023-10-04T12:08:24.694Z,53.25
2023-10-04T12:10:51.090Z,53.36
2023-10-04T12:13:17.528Z,53.00
2023-10-04T12:15:43.961Z,53.31
2023-10-04T12:18:11.392Z,53.27
2023-10-04T12:20:37.836Z,53.05
2023-10-04T12:23:04.320Z,53.36
2023-10-04T12:25:30.756Z,53.53
2023-10-04T12:27:57.259Z,53.10
2023-10-04T12:30:23.804Z,53.73
2023-10-04T12:32:50.270Z,53.71
2023-10-04T12:35:17.591Z,53.50
2023-10-04T12:37:44.050Z,53.67
2023-10-04T12:40:10.502Z,53.00
2023-10-04T12:42:36.974Z,53.59
2023-10-04T12:45:03.464Z,53.19
2023-10-04T12:47:29.934Z,53.25
2023-10-04T12:49:56.350Z,53.44
2023-10-04T12:52:22.831Z,53.47
2023-10-04T12:54:49.331Z,53.17
2023-10-04T12:57:15.868Z,53.21
2023-10-04T12:59:42.292Z,53.59
2023-10-04T13:02:08.737Z,53.47
2023-10-04T13:04:35.291Z,53.51
2023-10-04T13:07:01.813Z,53.58
2023-10-04T13:09:28.297Z,53.25
2023-10-04T13:11:54.766Z,53.70
2023-10-04T13:14:21.195Z,53.51
2023-10-04T13:16:47.643Z,53.64
2023-10-04T13:19:14.997Z,53.75
2023-10-04T13:21:41.515Z,53.72
2023-10-04T13:24:07.948Z,53.67
2023-10-04T13:26:34.440Z,53.70
2023-10-04T13:29:00.871Z,53.44
2023-10-04T13:31:27.291Z,53.60
2023-10-04T13:33:54.107Z,53.94
2023-10-04T13:36:21.594Z,53.21
2023-10-04T13:38:48.078Z,53.63
2023-10-04T13:41:15.385Z,53.67
2023-10-04T13:43:41.794Z,53.47
2023-10-04T13:46:08.295Z,53.39
2023-10-04T13:48:35.176Z,53.15
2023-10-04T13:51:01.584Z,53.46
2023-10-04T13:53:28.004Z,53.41
2023-10-04T13:55:54.417Z,53.49
2023-10-04T13:58:20.865Z,53.43
2023-10-04T14:00:47.418Z,53.03
2023-10-04T14:03:13.952Z,53.50
2023-10-04T14:05:40.416Z,53.22
2023-10-04T14:08:06.888Z,53.17
2023-10-04T14:10:33.309Z,52.96
2023-10-04T14:13:00.018Z,52.86
2023-10-04T14:15:26.598Z,53.30
2023-10-04T14:17:53.177Z,53.17
2023-10-04T14:20:19.601Z,53.17
2023-10-04T14:22:46.033Z,53.08
2023-10-04T14:25:12.454Z,53.06
2023-10-04T14:27:38.854Z,53.21
2023-10-04T14:30:05.335Z,53.28
2023-10-04T14:32:31.885Z,53.40
2023-10-04T14:34:58.344Z,53.62
2023-10-04T14:37:24.760Z,53.31
2023-10-04T14:39:51.214Z,53.03
2023-10-04T14:42:17.628Z,53.31
2023-10-04T14:44:44.040Z,53.36
2023-10-04T14:47:10.458Z,53.34
2023-10-04T14:49:36.853Z,53.21
2023-10-04T14:52:03.305Z,53.34
2023-10-04T14:54:29.837Z,53.34
2023-10-04T14:56:56.263Z,53.46
2023-10-04T14:59:22.702Z,53.11
2023-10-04T15:01:49.169Z,53.41
2023-10-04T15:04:16.625Z,53.60
2023-10-04T15:06:43.173Z,53.67
2023-10-04T15:09:10.492Z,53.32
2023-10-04T15:11:36.916Z,53.80
2023-10-04T15:14:05.608Z,53.53
2023-10-04T15:16:32.193Z,53.64
2023-10-04T15:18:58.795Z,53.69
2023-10-04T15:21:25.304Z,53.62
2023-10-04T15:23:51.737Z,53.47
2023-10-04T15:26:18.139Z,53.82
2023-10-04T15:28:44.627Z,53.67
2023-10-04T15:31:11.237Z,53.97
2023-10-04T15:33:37.684Z,54.03
2023-10-04T15:36:04.102Z,53.58
2023-10-04T15:38:30.507Z,53.83
2023-10-04T15:40:56.979Z,53.74
2023-10-04T15:43:23.423Z,53.47
2023-10-04T15:45:49.938Z,53.87
2023-10-04T15:48:16.430Z,53.66
2023-10-04T15:50:42.827Z,53.93
2023-10-04T15:53:10.105Z,53.62
2023-10-04T15:55:36.541Z,53.70
2023-10-04T15:58:03.087Z,53.74
2023-10-04T16:00:29.615Z,53.54
2023-10-04T16:02:56.172Z,53.96
2023-10-04T16:05:22.648Z,53.77
2023-10-04T16:07:49.087Z,53.37
2023-10-04T16:10:16.377Z,53.77
2023-10-04T16:12:42.852Z,53.77
2023-10-04T16:15:09.327Z,53.62
2023-10-04T16:17:35.832Z,53.25
2023-10-04T16:20:02.312Z,53.77
2023-10-04T16:22:28.726Z,53.51
2023-10-04T16:24:55.312Z,53.72
2023-10-04T16:27:21.741Z,53.33
2023-10-04T16:29:48.186Z,53.82
2023-10-04T16:32:15.516Z,53.50
2023-10-04T16:34:41.928Z,53.66
2023-10-04T16:37:08.358Z,53.57
2023-10-04T16:39:34.802Z,53.57
2023-10-04T16:42:01.234Z,53.57
2023-10-04T16:44:27.649Z,53.91
2023-10-04T16:46:54.168Z,53.53
2023-10-04T16:49:20.623Z,53.51
2023-10-04T16:51:47.050Z,53.49
2023-10-04T16:54:13.460Z,53.96
2023-10-04T16:56:39.837Z,53.74
2023-10-04T16:59:06.278Z,53.46
2023-10-04T17:01:32.752Z,54.11
2023-10-04T17:03:59.218Z,53.78
2023-10-04T17:06:25.695Z,54.19
2023-10-04T17:08:52.116Z,53.89
2023-10-04T17:11:18.514Z,54.17
2023-10-04T17:13:44.960Z,53.59
2023-10-04T17:16:11.500Z,53.42
2023-10-04T17:18:37.969Z,53.54
2023-10-04T17:21:04.467Z,54.07
2023-10-04T17:23:30.867Z,53.99
2023-10-04T17:25:57.301Z,53.68
2023-10-04T17:28:23.724Z,53.64
2023-10-04T17:30:50.216Z,53.76
2023-10-04T17:33:16.783Z,53.79
2023-10-04T17:35:43.250Z,53.90
2023-10-04T17:38:10.532Z,54.22
2023-10-04T17:40:36.974Z,53.72
2023-10-04T17:43:03.438Z,54.00
2023-10-04T17:45:29.950Z,53.86
2023-10-04T17:47:56.520Z,54.10
2023-10-04T17:50:23.033Z,54.04
2023-10-04T17:52:49.469Z,54.28
2023-10-04T17:55:15.896Z,53.96
2023-10-04T17:57:42.371Z,54.36
2023-10-04T18:00:08.788Z,54.15
2023-10-04T18:02:35.248Z,54.17
2023-10-04T18:05:01.674Z,53.95
2023-10-04T18:07:28.089Z,53.80
2023-10-04T18:09:54.546Z,53.87
2023-10-04T18:12:21.057Z,53.88
2023-10-04T18:14:47.501Z,54.21
2023-10-04T18:17:13.957Z,53.52
2023-10-04T18:19:40.579Z,53.88
2023-10-04T18:22:07.136Z,53.92
2023-10-04T18:24:33.641Z,53.78
2023-10-04T18:27:00.070Z,53.94
2023-10-04T18:29:26.510Z,53.47
2023-10-04T18:31:53.024Z,53.92
2023-10-04T18:34:19.542Z,53.50
2023-10-04T18:36:45.994Z,53.82
2023-10-04T18:39:13.291Z,53.69
2023-10-04T18:41:39.710Z,53.58
2023-10-04T18:44:06.487Z,53.72
2023-10-04T18:46:33.363Z,53.92
2023-10-04T18:48:59.921Z,53.93
2023-10-04T18:51:26.415Z,53.60
2023-10-04T18:53:52.844Z,53.86
2023-10-04T18:56:20.216Z,53.87
2023-10-04T18:58:46.620Z,53.85
2023-10-04T19:01:13.110Z,53.93
2023-10-04T19:03:39.718Z,53.69
2023-10-04T19:06:06.209Z,53.86
2023-10-04T19:08:32.618Z,54.07
2023-10-04T19:10:59.109Z,53.85
2023-10-04T19:13:25.617Z,53.98
2023-10-04T19:15:52.111Z,53.61
2023-10-04T19:18:18.593Z,53.92
2023-10-04T19:20:45.104Z,53.69
2023-10-04T19:23:12.388Z,54.06
2023-10-04T19:25:38.795Z,54.01
2023-10-04T19:28:05.269Z,53.70
2023-10-04T19:30:31.799Z,53.57
2023-10-04T19:32:58.302Z,53.78
2023-10-04T19:35:24.786Z,53.80
2023-10-04T19:37:51.176Z,53.40
2023-10-04T19:40:18.515Z,53.43
2023-10-04T19:42:45.041Z,53.76
2023-10-04T19:45:11.528Z,53.36
2023-10-04T19:47:37.962Z,53.25
2023-10-04T19:50:04.516Z,52.91
2023-10-04T19:52:30.946Z,53.14
2023-10-04T19:54:57.364Z,53.53
2023-10-04T19:57:26.138Z,53.44
2023-10-04T19:59:54.147Z,53.55
2023-10-04T20:02:21.502Z,53.53
2023-10-04T20:04:47.939Z,53.47
2023-10-04T20:07:15.269Z,53.22
2023-10-04T20:09:41.746Z,53.31
2023-10-04T20:12:08.174Z,53.25
2023-10-04T20:14:34.644Z,53.04
2023-10-04T20:17:01.154Z,53.17
2023-10-04T20:19:27.588Z,53.52
2023-10-04T20:21:54.122Z,53.36
2023-10-04T20:24:20.579Z,53.26
2023-10-04T20:26:48.010Z,53.02
2023-10-04T20:29:15.303Z,53.08
2023-10-04T20:31:41.774Z,52.99
2023-10-04T20:34:08.416Z,53.51
2023-10-04T20:36:35.156Z,53.32
2023-10-04T20:39:01.613Z,53.01
2023-10-04T20:41:28.060Z,53.08
2023-10-04T20:43:54.495Z,53.13
2023-10-04T20:46:21.874Z,52.92
2023-10-04T20:48:48.406Z,53.10
2023-10-04T20:51:15.737Z,52.65
2023-10-04T20:53:42.154Z,53.21
2023-10-04T20:56:08.573Z,52.77
2023-10-04T20:58:35.008Z,52.65
2023-10-04T21:01:01.569Z,52.86
2023-10-04T21:03:28.093Z,52.89
2023-10-04T21:05:54.564Z,53.21
2023-10-04T21:08:21.004Z,52.80
2023-10-04T21:10:47.424Z,52.90
2023-10-04T21:13:14.735Z,52.79
2023-10-04T21:15:41.158Z,53.00
2023-10-04T21:18:07.651Z,53.07
2023-10-04T21:20:34.116Z,53.16
2023-10-04T21:23:01.462Z,53.63
2023-10-04T21:25:27.997Z,53.43
2023-10-04T21:27:54.464Z,53.35
2023-10-04T21:30:20.934Z,53.31
2023-10-04T21:32:47.375Z,53.21
2023-10-04T21:35:13.825Z,53.35
2023-10-04T21:37:40.246Z,52.93
2023-10-04T21:40:06.708Z,53.35
2023-10-04T21:42:33.294Z,53.47
2023-10-04T21:44:59.707Z,53.50
2023-10-04T21:47:26.135Z,53.21
2023-10-04T21:49:52.626Z,52.95
2023-10-04T21:52:19.098Z,53.38
2023-10-04T21:54:45.576Z,53.10
2023-10-04T21:57:12.979Z,53.06
2023-10-04T21:59:39.378Z,53.29
2023-10-04T22:02:05.859Z,53.19
2023-10-04T22:04:33.320Z,53.46
2023-10-04T22:07:14.329Z,53.41
2023-10-04T22:09:45.450Z,53.89
2023-10-04T22:12:11.940Z,53.68
2023-10-04T22:14:39.217Z,53.38
2023-10-04T22:17:05.726Z,53.21
2023-10-04T22:19:32.156Z,53.33
2023-10-04T22:21:58.662Z,53.35
2023-10-04T22:24:25.275Z,53.33
2023-10-04T22:26:52.589Z,53.48
2023-10-04T22:29:26.781Z,53.54
2023-10-04T22:32:00.435Z,53.81
2023-10-04T22:34:27.844Z,53.94
2023-10-04T22:36:54.373Z,53.48
2023-10-04T22:39:21.734Z,53.73
2023-10-04T22:41:48.190Z,53.61
2023-10-04T22:44:17.501Z,53.94
2023-10-04T22:46:44.119Z,54.11
2023-10-04T22:49:11.539Z,53.82
2023-10-04T22:51:37.941Z,53.51
2023-10-04T22:54:04.372Z,53.54
2023-10-04T22:56:30.777Z,53.85
2023-10-04T22:58:58.060Z,53.75
2023-10-04T23:01:24.609Z,53.80
2023-10-04T23:03:51.214Z,53.88
2023-10-04T23:06:17.831Z,54.13
2023-10-04T23:08:44.352Z,53.76
2023-10-04T23:11:10.808Z,54.04
2023-10-04T23:13:37.223Z,54.22
2023-10-04T23:16:03.704Z,53.86
2023-10-04T23:18:30.148Z,54.27
2023-10-04T23:20:56.585Z,54.23
2023-10-04T23:23:23.984Z,54.14
2023-10-04T23:25:50.420Z,54.04
2023-10-04T23:28:17.735Z,53.89
2023-10-04T23:30:44.238Z,53.91
2023-10-04T23:33:10.654Z,54.15
2023-10-04T23:35:37.055Z,54.07
2023-10-04T23:38:03.611Z,54.08
2023-10-04T23:40:30.051Z,54.30
2023-10-04T23:42:56.559Z,54.01
2023-10-04T23:45:23.024Z,54.03
2023-10-04T23:47:49.555Z,53.93
2023-10-04T23:50:15.995Z,54.23
2023-10-04T23:52:43.284Z,54.30
2023-10-04T23:55:10.614Z,54.54
2023-10-04T23:57:37.121Z,54.38
